NJE300 RKSI-UHWW
Flight info
| Callsign | NJE300 |
|---|---|
| Flight time | 1h 24m |
| Altitude | 37000 |
| Route | SEL G597 KAE B467 LESBU DCT MESOV/K0819F370 A900 VATIS VATIS2N |
| Aircraft | A20N/M-SDE2E3FGHIRWXY/LB1 |
Departure
| Time | 2026-04-25 05:33 |
|---|---|
| Airport | Incheon International Airport (RKSI) |
Arrival
| Time | 2026-04-25 06:57 |
|---|---|
| Airport | Vladivostok International Airport (UHWW) |
| Time | Latitude | Longitude | Altitude | Speed | Heading |
|---|---|---|---|---|---|
| 2026-04-25 05:27 | 37.45324 | 126.44349 | 30 ft | 0 kts | 240° |
| 2026-04-25 05:27 | 37.45320 | 126.44342 | 30 ft | 2 kts | 240° |
| 2026-04-25 05:27 | 37.45308 | 126.44317 | 30 ft | 5 kts | 238° |
| 2026-04-25 05:28 | 37.45285 | 126.44273 | 31 ft | 7 kts | 236° |
| 2026-04-25 05:28 | 37.45252 | 126.44212 | 32 ft | 10 kts | 235° |
| 2026-04-25 05:28 | 37.45205 | 126.44140 | 32 ft | 12 kts | 219° |
| 2026-04-25 05:28 | 37.45121 | 126.44118 | 32 ft | 14 kts | 194° |
| 2026-04-25 05:29 | 37.45049 | 126.44036 | 32 ft | 15 kts | 233° |
| 2026-04-25 05:29 | 37.44980 | 126.43928 | 32 ft | 16 kts | 213° |
| 2026-04-25 05:29 | 37.44876 | 126.43965 | 32 ft | 18 kts | 144° |
| 2026-04-25 05:29 | 37.44768 | 126.44060 | 32 ft | 20 kts | 145° |
| 2026-04-25 05:30 | 37.44646 | 126.44164 | 30 ft | 22 kts | 146° |
| 2026-04-25 05:30 | 37.44592 | 126.44210 | 32 ft | 0 kts | 146° |
| 2026-04-25 05:30 | 37.44592 | 126.44211 | 32 ft | 0 kts | 146° |
| 2026-04-25 05:30 | 37.44581 | 126.44220 | 32 ft | 4 kts | 146° |
| 2026-04-25 05:31 | 37.44550 | 126.44244 | 31 ft | 7 kts | 153° |
| 2026-04-25 05:31 | 37.44499 | 126.44231 | 31 ft | 9 kts | 224° |
| 2026-04-25 05:31 | 37.44458 | 126.44162 | 32 ft | 11 kts | 234° |
| 2026-04-25 05:31 | 37.44458 | 126.44075 | 32 ft | 12 kts | 314° |
| 2026-04-25 05:32 | 37.44528 | 126.44007 | 31 ft | 17 kts | 323° |
| 2026-04-25 05:32 | 37.44813 | 126.43757 | 32 ft | 82 kts | 325° |
| 2026-04-25 05:32 | 37.45433 | 126.43200 | 31 ft | 134 kts | 324° |
| 2026-04-25 05:32 | 37.46281 | 126.42465 | 310 ft | 150 kts | 324° |
| 2026-04-25 05:33 | 37.47150 | 126.41720 | 805 ft | 159 kts | 322° |
| 2026-04-25 05:33 | 37.48024 | 126.40815 | 1312 ft | 164 kts | 310° |
| 2026-04-25 05:33 | 37.48749 | 126.39690 | 1909 ft | 171 kts | 303° |
| 2026-04-25 05:33 | 37.49483 | 126.38421 | 2244 ft | 188 kts | 303° |
| 2026-04-25 05:34 | 37.50183 | 126.36938 | 2564 ft | 205 kts | 288° |
| 2026-04-25 05:34 | 37.50447 | 126.35107 | 2924 ft | 224 kts | 269° |
| 2026-04-25 05:34 | 37.50469 | 126.33049 | 3404 ft | 246 kts | 269° |
| 2026-04-25 05:34 | 37.50511 | 126.30847 | 4176 ft | 255 kts | 269° |
| 2026-04-25 05:35 | 37.50565 | 126.28582 | 5092 ft | 261 kts | 270° |
| 2026-04-25 05:35 | 37.50622 | 126.26310 | 5981 ft | 266 kts | 270° |
| 2026-04-25 05:35 | 37.50680 | 126.23957 | 6874 ft | 270 kts | 270° |
| 2026-04-25 05:35 | 37.50717 | 126.21576 | 7762 ft | 273 kts | 264° |
| 2026-04-25 05:36 | 37.50196 | 126.19280 | 8606 ft | 276 kts | 239° |
| 2026-04-25 05:36 | 37.48908 | 126.17485 | 9444 ft | 281 kts | 214° |
| 2026-04-25 05:36 | 37.47113 | 126.16453 | 10255 ft | 288 kts | 201° |
| 2026-04-25 05:36 | 37.45162 | 126.15559 | 10638 ft | 310 kts | 200° |
| 2026-04-25 05:37 | 37.42983 | 126.14939 | 10908 ft | 333 kts | 182° |
| 2026-04-25 05:37 | 37.40672 | 126.15390 | 11567 ft | 341 kts | 160° |
| 2026-04-25 05:37 | 37.38643 | 126.16876 | 12358 ft | 345 kts | 138° |
| 2026-04-25 05:37 | 37.37016 | 126.19085 | 13274 ft | 346 kts | 131° |
| 2026-04-25 05:38 | 37.35425 | 126.21379 | 14026 ft | 350 kts | 131° |
| 2026-04-25 05:38 | 37.33896 | 126.23787 | 14691 ft | 355 kts | 122° |
| 2026-04-25 05:38 | 37.32894 | 126.26639 | 15345 ft | 361 kts | 105° |
| 2026-04-25 05:38 | 37.32584 | 126.29791 | 15988 ft | 367 kts | 91° |
| 2026-04-25 05:39 | 37.32567 | 126.33023 | 16634 ft | 372 kts | 91° |
| 2026-04-25 05:39 | 37.32552 | 126.36294 | 17222 ft | 378 kts | 91° |
| 2026-04-25 05:39 | 37.32531 | 126.39628 | 17852 ft | 383 kts | 91° |
| 2026-04-25 05:39 | 37.32505 | 126.42990 | 18486 ft | 387 kts | 91° |
| 2026-04-25 05:40 | 37.32474 | 126.46394 | 19055 ft | 391 kts | 91° |
| 2026-04-25 05:40 | 37.32439 | 126.49821 | 19649 ft | 393 kts | 91° |
| 2026-04-25 05:40 | 37.32401 | 126.53271 | 20222 ft | 396 kts | 92° |
| 2026-04-25 05:40 | 37.32361 | 126.56751 | 20768 ft | 399 kts | 92° |
| 2026-04-25 05:41 | 37.32320 | 126.60253 | 21332 ft | 403 kts | 92° |
| 2026-04-25 05:41 | 37.32277 | 126.63791 | 21891 ft | 406 kts | 92° |
| 2026-04-25 05:41 | 37.32234 | 126.67305 | 22437 ft | 409 kts | 92° |
| 2026-04-25 05:41 | 37.32189 | 126.70908 | 22987 ft | 412 kts | 92° |
| 2026-04-25 05:42 | 37.32145 | 126.74538 | 23543 ft | 416 kts | 92° |
| 2026-04-25 05:42 | 37.32104 | 126.78184 | 24023 ft | 419 kts | 92° |
| 2026-04-25 05:42 | 37.32063 | 126.81855 | 24471 ft | 422 kts | 92° |
| 2026-04-25 05:42 | 37.32020 | 126.85550 | 24934 ft | 424 kts | 92° |
| 2026-04-25 05:43 | 37.31974 | 126.89276 | 25366 ft | 427 kts | 92° |
| 2026-04-25 05:43 | 37.31927 | 126.92972 | 25740 ft | 432 kts | 92° |
| 2026-04-25 05:43 | 37.31912 | 126.96754 | 26168 ft | 435 kts | 88° |
| 2026-04-25 05:43 | 37.32352 | 127.00529 | 26590 ft | 439 kts | 77° |
| 2026-04-25 05:44 | 37.33378 | 127.04166 | 26958 ft | 444 kts | 65° |
| 2026-04-25 05:44 | 37.34884 | 127.07575 | 27349 ft | 447 kts | 60° |
| 2026-04-25 05:44 | 37.36447 | 127.10959 | 27768 ft | 449 kts | 60° |
| 2026-04-25 05:44 | 37.38017 | 127.14375 | 28131 ft | 452 kts | 60° |
| 2026-04-25 05:45 | 37.39592 | 127.17816 | 28490 ft | 455 kts | 60° |
| 2026-04-25 05:45 | 37.41173 | 127.21278 | 28864 ft | 457 kts | 60° |
| 2026-04-25 05:45 | 37.42755 | 127.24749 | 29234 ft | 459 kts | 60° |
| 2026-04-25 05:45 | 37.44348 | 127.28245 | 29503 ft | 462 kts | 60° |
| 2026-04-25 05:46 | 37.45950 | 127.31766 | 29852 ft | 464 kts | 60° |
| 2026-04-25 05:46 | 37.47496 | 127.35346 | 30190 ft | 466 kts | 65° |
| 2026-04-25 05:46 | 37.48717 | 127.39123 | 30451 ft | 468 kts | 72° |
| 2026-04-25 05:46 | 37.49582 | 127.43084 | 30688 ft | 470 kts | 79° |
| 2026-04-25 05:47 | 37.50217 | 127.47139 | 30978 ft | 471 kts | 79° |
| 2026-04-25 05:47 | 37.50863 | 127.51189 | 31239 ft | 474 kts | 79° |
| 2026-04-25 05:47 | 37.51512 | 127.55219 | 31559 ft | 475 kts | 79° |
| 2026-04-25 05:47 | 37.52167 | 127.59293 | 31910 ft | 475 kts | 79° |
| 2026-04-25 05:48 | 37.52821 | 127.63383 | 32243 ft | 475 kts | 79° |
| 2026-04-25 05:48 | 37.53471 | 127.67466 | 32572 ft | 476 kts | 79° |
| 2026-04-25 05:48 | 37.54121 | 127.71560 | 32877 ft | 476 kts | 79° |
| 2026-04-25 05:48 | 37.54771 | 127.75656 | 33102 ft | 479 kts | 79° |
| 2026-04-25 05:49 | 37.55421 | 127.79771 | 33415 ft | 479 kts | 79° |
| 2026-04-25 05:49 | 37.56072 | 127.83902 | 33764 ft | 478 kts | 79° |
| 2026-04-25 05:49 | 37.56719 | 127.88014 | 34077 ft | 478 kts | 79° |
| 2026-04-25 05:49 | 37.57148 | 127.90741 | 34233 ft | 478 kts | 79° |
| 2026-04-25 05:50 | 37.58003 | 127.96200 | 34508 ft | 480 kts | 79° |
| 2026-04-25 05:50 | 37.58650 | 128.00345 | 34638 ft | 483 kts | 79° |
| 2026-04-25 05:50 | 37.59298 | 128.04502 | 34849 ft | 483 kts | 79° |
| 2026-04-25 05:50 | 37.59945 | 128.08668 | 35053 ft | 484 kts | 80° |
| 2026-04-25 05:51 | 37.60383 | 128.11489 | 35189 ft | 485 kts | 80° |
| 2026-04-25 05:51 | 37.61030 | 128.15673 | 35393 ft | 486 kts | 80° |
| 2026-04-25 05:51 | 37.61668 | 128.19802 | 35626 ft | 485 kts | 80° |
| 2026-04-25 05:51 | 37.62314 | 128.24000 | 35754 ft | 488 kts | 80° |
| 2026-04-25 05:52 | 37.62960 | 128.28202 | 35922 ft | 489 kts | 80° |
| 2026-04-25 05:52 | 37.63606 | 128.32415 | 36101 ft | 489 kts | 80° |
| 2026-04-25 05:52 | 37.64250 | 128.36629 | 36286 ft | 490 kts | 80° |
| 2026-04-25 05:52 | 37.64896 | 128.40861 | 36456 ft | 491 kts | 80° |
| 2026-04-25 05:53 | 37.65540 | 128.45096 | 36630 ft | 491 kts | 80° |
| 2026-04-25 05:53 | 37.66182 | 128.49332 | 36806 ft | 492 kts | 80° |
| 2026-04-25 05:53 | 37.66825 | 128.53577 | 36976 ft | 493 kts | 80° |
| 2026-04-25 05:54 | 37.68105 | 128.62075 | 37072 ft | 492 kts | 80° |
| 2026-04-25 05:54 | 37.69879 | 128.74859 | 37074 ft | 494 kts | 86° |
| 2026-04-25 05:55 | 37.69991 | 128.83497 | 37081 ft | 490 kts | 93° |
| 2026-04-25 05:55 | 37.69894 | 128.92080 | 37100 ft | 492 kts | 93° |
| 2026-04-25 05:56 | 37.69797 | 129.00724 | 37087 ft | 491 kts | 93° |
| 2026-04-25 05:56 | 37.69691 | 129.09331 | 37080 ft | 489 kts | 93° |
| 2026-04-25 05:57 | 37.69575 | 129.17977 | 37092 ft | 497 kts | 93° |
| 2026-04-25 05:57 | 37.69451 | 129.26778 | 37098 ft | 505 kts | 93° |
| 2026-04-25 05:58 | 37.69320 | 129.35642 | 37087 ft | 510 kts | 93° |
| 2026-04-25 05:58 | 37.69181 | 129.44678 | 37107 ft | 512 kts | 93° |
| 2026-04-25 05:59 | 37.69036 | 129.53601 | 37108 ft | 511 kts | 94° |
| 2026-04-25 05:59 | 37.69656 | 129.62538 | 37113 ft | 515 kts | 74° |
| 2026-04-25 06:00 | 37.70913 | 129.66775 | 37114 ft | 516 kts | 62° |
| 2026-04-25 06:00 | 37.72771 | 129.70631 | 37115 ft | 514 kts | 50° |
| 2026-04-25 06:00 | 37.75162 | 129.73967 | 37114 ft | 510 kts | 38° |
| 2026-04-25 06:00 | 37.77973 | 129.76658 | 37119 ft | 505 kts | 28° |
| 2026-04-25 06:01 | 37.84027 | 129.81180 | 37118 ft | 504 kts | 26° |
| 2026-04-25 06:01 | 37.89982 | 129.85791 | 37121 ft | 505 kts | 28° |
| 2026-04-25 06:02 | 37.95905 | 129.90610 | 37113 ft | 505 kts | 29° |
| 2026-04-25 06:02 | 38.01794 | 129.95458 | 37119 ft | 505 kts | 29° |
| 2026-04-25 06:03 | 38.07684 | 130.00317 | 37116 ft | 505 kts | 29° |
| 2026-04-25 06:03 | 38.13578 | 130.05183 | 37116 ft | 503 kts | 29° |
| 2026-04-25 06:04 | 38.19449 | 130.10040 | 37118 ft | 503 kts | 29° |
| 2026-04-25 06:04 | 38.25277 | 130.14870 | 37110 ft | 503 kts | 29° |
| 2026-04-25 06:05 | 38.31166 | 130.19762 | 37117 ft | 503 kts | 29° |
| 2026-04-25 06:05 | 38.37006 | 130.24622 | 37119 ft | 504 kts | 29° |
| 2026-04-25 06:06 | 38.42887 | 130.29525 | 37114 ft | 504 kts | 29° |
| 2026-04-25 06:06 | 38.48755 | 130.34428 | 37118 ft | 503 kts | 29° |
| 2026-04-25 06:07 | 38.54616 | 130.39335 | 37116 ft | 503 kts | 29° |
| 2026-04-25 06:07 | 38.60421 | 130.44205 | 37117 ft | 501 kts | 30° |
| 2026-04-25 06:08 | 38.66473 | 130.48552 | 37120 ft | 497 kts | 20° |
| 2026-04-25 06:08 | 38.72729 | 130.52319 | 37106 ft | 497 kts | 21° |
| 2026-04-25 06:09 | 38.78979 | 130.56114 | 37113 ft | 496 kts | 21° |
| 2026-04-25 06:09 | 38.85212 | 130.59899 | 37111 ft | 496 kts | 21° |
| 2026-04-25 06:10 | 38.91447 | 130.63690 | 37111 ft | 496 kts | 21° |
| 2026-04-25 06:10 | 38.97623 | 130.67453 | 37111 ft | 494 kts | 21° |
| 2026-04-25 06:11 | 39.03838 | 130.71246 | 37105 ft | 494 kts | 21° |
| 2026-04-25 06:11 | 39.10052 | 130.75046 | 37107 ft | 494 kts | 21° |
| 2026-04-25 06:12 | 39.16294 | 130.78868 | 37102 ft | 494 kts | 21° |
| 2026-04-25 06:12 | 39.22460 | 130.82651 | 37104 ft | 494 kts | 21° |
| 2026-04-25 06:13 | 39.28668 | 130.86469 | 37112 ft | 493 kts | 21° |
| 2026-04-25 06:14 | 39.37936 | 130.92181 | 37097 ft | 492 kts | 21° |
| 2026-04-25 06:14 | 39.44118 | 130.96001 | 37097 ft | 492 kts | 21° |
| 2026-04-25 06:15 | 39.50310 | 130.99834 | 37100 ft | 492 kts | 21° |
| 2026-04-25 06:15 | 39.56484 | 131.03664 | 37098 ft | 492 kts | 21° |
| 2026-04-25 06:16 | 39.62625 | 131.07482 | 37094 ft | 491 kts | 21° |
| 2026-04-25 06:16 | 39.68797 | 131.11326 | 37097 ft | 492 kts | 21° |
| 2026-04-25 06:17 | 39.74955 | 131.15169 | 37090 ft | 489 kts | 21° |
| 2026-04-25 06:17 | 39.81095 | 131.19009 | 37094 ft | 489 kts | 21° |
| 2026-04-25 06:18 | 39.87201 | 131.22834 | 37089 ft | 489 kts | 21° |
| 2026-04-25 06:18 | 39.93357 | 131.26698 | 37089 ft | 490 kts | 21° |
| 2026-04-25 06:19 | 39.99498 | 131.30561 | 37089 ft | 490 kts | 21° |
| 2026-04-25 06:19 | 40.05574 | 131.34391 | 37096 ft | 486 kts | 22° |
| 2026-04-25 06:20 | 40.11665 | 131.38237 | 37085 ft | 486 kts | 22° |
| 2026-04-25 06:20 | 40.17766 | 131.42097 | 37083 ft | 486 kts | 22° |
| 2026-04-25 06:21 | 40.23858 | 131.45963 | 37080 ft | 485 kts | 22° |
| 2026-04-25 06:21 | 40.29931 | 131.49822 | 37081 ft | 485 kts | 22° |
| 2026-04-25 06:22 | 40.36005 | 131.53688 | 37077 ft | 485 kts | 22° |
| 2026-04-25 06:22 | 40.42022 | 131.57528 | 37080 ft | 482 kts | 22° |
| 2026-04-25 06:23 | 40.48074 | 131.61397 | 37077 ft | 483 kts | 22° |
| 2026-04-25 06:23 | 40.54117 | 131.65268 | 37078 ft | 483 kts | 22° |
| 2026-04-25 06:24 | 40.60157 | 131.69146 | 37077 ft | 482 kts | 22° |
| 2026-04-25 06:24 | 40.66206 | 131.73036 | 37080 ft | 482 kts | 22° |
| 2026-04-25 06:25 | 40.72198 | 131.76897 | 37090 ft | 482 kts | 22° |
| 2026-04-25 06:25 | 40.78215 | 131.80784 | 37073 ft | 480 kts | 22° |
| 2026-04-25 06:26 | 40.84211 | 131.84665 | 37071 ft | 480 kts | 22° |
| 2026-04-25 06:26 | 40.90206 | 131.88552 | 37076 ft | 480 kts | 22° |
| 2026-04-25 06:27 | 40.96211 | 131.92453 | 37072 ft | 480 kts | 22° |
| 2026-04-25 06:27 | 41.02211 | 131.96360 | 37076 ft | 480 kts | 22° |
| 2026-04-25 06:28 | 41.08199 | 132.00268 | 37070 ft | 479 kts | 21° |
| 2026-04-25 06:28 | 41.14175 | 132.04175 | 37085 ft | 478 kts | 21° |
| 2026-04-25 06:29 | 41.20087 | 132.08048 | 37074 ft | 477 kts | 21° |
| 2026-04-25 06:29 | 41.26042 | 132.11957 | 37069 ft | 477 kts | 21° |
| 2026-04-25 06:30 | 41.31984 | 132.15866 | 37072 ft | 477 kts | 21° |
| 2026-04-25 06:30 | 41.37931 | 132.19785 | 37069 ft | 477 kts | 21° |
| 2026-04-25 06:31 | 41.43826 | 132.23652 | 37070 ft | 460 kts | 18° |
| 2026-04-25 06:31 | 41.46789 | 132.25077 | 37076 ft | 446 kts | 9° |
| 2026-04-25 06:31 | 41.49823 | 132.25919 | 37076 ft | 444 kts | 1° |
| 2026-04-25 06:32 | 41.55945 | 132.26009 | 37075 ft | 437 kts | 351° |
| 2026-04-25 06:32 | 41.61975 | 132.25500 | 37078 ft | 436 kts | 351° |
| 2026-04-25 06:33 | 41.68034 | 132.24997 | 37075 ft | 435 kts | 351° |
| 2026-04-25 06:33 | 41.73060 | 132.24570 | 37069 ft | 435 kts | 350° |
| 2026-04-25 06:33 | 41.76090 | 132.24311 | 36900 ft | 436 kts | 351° |
| 2026-04-25 06:34 | 41.79117 | 132.24052 | 36636 ft | 435 kts | 351° |
| 2026-04-25 06:34 | 41.82142 | 132.23793 | 36371 ft | 435 kts | 351° |
| 2026-04-25 06:34 | 41.85163 | 132.23534 | 36136 ft | 435 kts | 351° |
| 2026-04-25 06:34 | 41.88180 | 132.23277 | 35781 ft | 434 kts | 351° |
| 2026-04-25 06:35 | 41.91205 | 132.23015 | 35067 ft | 437 kts | 351° |
| 2026-04-25 06:35 | 41.94265 | 132.22748 | 34213 ft | 442 kts | 351° |
| 2026-04-25 06:35 | 41.97339 | 132.22482 | 33443 ft | 442 kts | 351° |
| 2026-04-25 06:35 | 42.00362 | 132.22224 | 32690 ft | 441 kts | 351° |
| 2026-04-25 06:36 | 42.03429 | 132.21962 | 31902 ft | 441 kts | 351° |
| 2026-04-25 06:36 | 42.06494 | 132.21699 | 31193 ft | 439 kts | 351° |
| 2026-04-25 06:36 | 42.09520 | 132.21440 | 30675 ft | 433 kts | 351° |
| 2026-04-25 06:36 | 42.12517 | 132.21183 | 30101 ft | 429 kts | 351° |
| 2026-04-25 06:37 | 42.15483 | 132.20927 | 29505 ft | 424 kts | 351° |
| 2026-04-25 06:37 | 42.18400 | 132.20676 | 28938 ft | 418 kts | 351° |
| 2026-04-25 06:37 | 42.21284 | 132.20427 | 28397 ft | 412 kts | 351° |
| 2026-04-25 06:37 | 42.24127 | 132.20181 | 27872 ft | 407 kts | 350° |
| 2026-04-25 06:38 | 42.26947 | 132.19938 | 27323 ft | 403 kts | 350° |
| 2026-04-25 06:38 | 42.29731 | 132.19696 | 26788 ft | 398 kts | 350° |
| 2026-04-25 06:38 | 42.32487 | 132.19455 | 26257 ft | 394 kts | 350° |
| 2026-04-25 06:38 | 42.35215 | 132.19219 | 25743 ft | 391 kts | 349° |
| 2026-04-25 06:39 | 42.37893 | 132.18988 | 25223 ft | 388 kts | 349° |
| 2026-04-25 06:39 | 42.40596 | 132.18756 | 24694 ft | 385 kts | 349° |
| 2026-04-25 06:39 | 42.43264 | 132.18527 | 24181 ft | 382 kts | 349° |
| 2026-04-25 06:39 | 42.45915 | 132.18297 | 23656 ft | 380 kts | 348° |
| 2026-04-25 06:40 | 42.48547 | 132.18067 | 23108 ft | 377 kts | 348° |
| 2026-04-25 06:40 | 42.51121 | 132.17843 | 22593 ft | 373 kts | 348° |
| 2026-04-25 06:40 | 42.53693 | 132.17618 | 22085 ft | 369 kts | 348° |
| 2026-04-25 06:40 | 42.56252 | 132.17394 | 21580 ft | 365 kts | 348° |
| 2026-04-25 06:41 | 42.58777 | 132.17173 | 21071 ft | 362 kts | 348° |
| 2026-04-25 06:41 | 42.61279 | 132.16953 | 20579 ft | 359 kts | 348° |
| 2026-04-25 06:41 | 42.63767 | 132.16733 | 20085 ft | 356 kts | 349° |
| 2026-04-25 06:41 | 42.66237 | 132.16516 | 19588 ft | 354 kts | 349° |
| 2026-04-25 06:42 | 42.68693 | 132.16299 | 19086 ft | 352 kts | 349° |
| 2026-04-25 06:42 | 42.71135 | 132.16083 | 18588 ft | 351 kts | 349° |
| 2026-04-25 06:42 | 42.73539 | 132.15871 | 18075 ft | 349 kts | 349° |
| 2026-04-25 06:42 | 42.75954 | 132.15658 | 17580 ft | 346 kts | 349° |
| 2026-04-25 06:43 | 42.78346 | 132.15447 | 17088 ft | 343 kts | 349° |
| 2026-04-25 06:43 | 42.80724 | 132.15236 | 16606 ft | 340 kts | 349° |
| 2026-04-25 06:43 | 42.83081 | 132.15028 | 16147 ft | 337 kts | 349° |
| 2026-04-25 06:43 | 42.85418 | 132.14823 | 15678 ft | 336 kts | 350° |
| 2026-04-25 06:44 | 42.87762 | 132.14874 | 15213 ft | 338 kts | 357° |
| 2026-04-25 06:44 | 42.90105 | 132.15093 | 14740 ft | 336 kts | 357° |
| 2026-04-25 06:44 | 42.92434 | 132.15298 | 14279 ft | 334 kts | 357° |
| 2026-04-25 06:44 | 42.94751 | 132.15499 | 13814 ft | 333 kts | 358° |
| 2026-04-25 06:45 | 42.97062 | 132.15699 | 13332 ft | 331 kts | 358° |
| 2026-04-25 06:45 | 42.99321 | 132.15897 | 12897 ft | 328 kts | 357° |
| 2026-04-25 06:45 | 43.01599 | 132.16098 | 12436 ft | 326 kts | 357° |
| 2026-04-25 06:45 | 43.04039 | 132.16312 | 11958 ft | 323 kts | 357° |
| 2026-04-25 06:46 | 43.06086 | 132.16492 | 11549 ft | 321 kts | 357° |
| 2026-04-25 06:46 | 43.08308 | 132.16688 | 11102 ft | 319 kts | 357° |
| 2026-04-25 06:46 | 43.10586 | 132.16880 | 10659 ft | 342 kts | 357° |
| 2026-04-25 06:46 | 43.13025 | 132.17081 | 10397 ft | 353 kts | 358° |
| 2026-04-25 06:47 | 43.15457 | 132.17300 | 10334 ft | 346 kts | 358° |
| 2026-04-25 06:47 | 43.17822 | 132.17521 | 10231 ft | 334 kts | 358° |
| 2026-04-25 06:47 | 43.20095 | 132.17733 | 10106 ft | 321 kts | 357° |
| 2026-04-25 06:47 | 43.22283 | 132.17935 | 9989 ft | 308 kts | 357° |
| 2026-04-25 06:48 | 43.24356 | 132.18126 | 9754 ft | 299 kts | 359° |
| 2026-04-25 06:48 | 43.26379 | 132.18947 | 9313 ft | 311 kts | 24° |
| 2026-04-25 06:48 | 43.28062 | 132.20867 | 8860 ft | 319 kts | 46° |
| 2026-04-25 06:48 | 43.29401 | 132.23323 | 8390 ft | 321 kts | 53° |
| 2026-04-25 06:49 | 43.30623 | 132.25882 | 8011 ft | 319 kts | 55° |
| 2026-04-25 06:49 | 43.31840 | 132.28419 | 7626 ft | 317 kts | 54° |
| 2026-04-25 06:49 | 43.33083 | 132.30917 | 7255 ft | 315 kts | 53° |
| 2026-04-25 06:49 | 43.34343 | 132.33372 | 6878 ft | 313 kts | 53° |
| 2026-04-25 06:50 | 43.35594 | 132.35770 | 6513 ft | 311 kts | 53° |
| 2026-04-25 06:50 | 43.36854 | 132.38165 | 6236 ft | 306 kts | 53° |
| 2026-04-25 06:50 | 43.38087 | 132.40497 | 6103 ft | 295 kts | 53° |
| 2026-04-25 06:50 | 43.39514 | 132.42397 | 5996 ft | 280 kts | 27° |
| 2026-04-25 06:51 | 43.41293 | 132.43192 | 5831 ft | 262 kts | 358° |
| 2026-04-25 06:51 | 43.43035 | 132.42794 | 5477 ft | 251 kts | 327° |
| 2026-04-25 06:51 | 43.44447 | 132.41450 | 5036 ft | 246 kts | 311° |
| 2026-04-25 06:51 | 43.45741 | 132.39890 | 4569 ft | 244 kts | 312° |
| 2026-04-25 06:52 | 43.46742 | 132.38156 | 4072 ft | 218 kts | 278° |
| 2026-04-25 06:52 | 43.46757 | 132.36268 | 3637 ft | 192 kts | 248° |
| 2026-04-25 06:52 | 43.46392 | 132.34540 | 3175 ft | 185 kts | 244° |
| 2026-04-25 06:52 | 43.45996 | 132.32921 | 2795 ft | 172 kts | 242° |
| 2026-04-25 06:53 | 43.45594 | 132.31402 | 2388 ft | 163 kts | 241° |
| 2026-04-25 06:53 | 43.45212 | 132.30017 | 2205 ft | 147 kts | 239° |
| 2026-04-25 06:53 | 43.44837 | 132.28735 | 2028 ft | 144 kts | 238° |
| 2026-04-25 06:53 | 43.44439 | 132.27464 | 1838 ft | 144 kts | 236° |
| 2026-04-25 06:54 | 43.44023 | 132.26210 | 1639 ft | 144 kts | 236° |
| 2026-04-25 06:54 | 43.43605 | 132.24997 | 1438 ft | 133 kts | 235° |
| 2026-04-25 06:54 | 43.43216 | 132.23897 | 1265 ft | 126 kts | 234° |
| 2026-04-25 06:54 | 43.42816 | 132.22818 | 1085 ft | 127 kts | 234° |
| 2026-04-25 06:55 | 43.42407 | 132.21744 | 905 ft | 129 kts | 233° |
| 2026-04-25 06:55 | 43.41993 | 132.20673 | 725 ft | 122 kts | 232° |
| 2026-04-25 06:55 | 43.41580 | 132.19619 | 562 ft | 132 kts | 233° |
| 2026-04-25 06:55 | 43.41129 | 132.18498 | 355 ft | 130 kts | 235° |
| 2026-04-25 06:56 | 43.40675 | 132.17383 | 199 ft | 138 kts | 237° |
| 2026-04-25 06:56 | 43.40219 | 132.16275 | 60 ft | 120 kts | 240° |
| 2026-04-25 06:56 | 43.39913 | 132.15521 | 67 ft | 62 kts | 238° |
| 2026-04-25 06:56 | 43.39731 | 132.15072 | 64 ft | 51 kts | 239° |
| 2026-04-25 06:57 | 43.39559 | 132.14659 | 62 ft | 49 kts | 241° |
| 2026-04-25 06:57 | 43.39415 | 132.14297 | 70 ft | 32 kts | 239° |
| 2026-04-25 06:57 | 43.39301 | 132.14211 | 63 ft | 20 kts | 155° |
| 2026-04-25 06:57 | 43.39197 | 132.14332 | 69 ft | 20 kts | 87° |
| 2026-04-25 06:58 | 43.39264 | 132.14508 | 69 ft | 22 kts | 61° |
| 2026-04-25 06:58 | 43.39340 | 132.14704 | 65 ft | 24 kts | 62° |
| 2026-04-25 06:58 | 43.39426 | 132.14913 | 67 ft | 26 kts | 59° |
| 2026-04-25 06:58 | 43.39518 | 132.15137 | 59 ft | 28 kts | 61° |
| 2026-04-25 06:59 | 43.39613 | 132.15377 | 60 ft | 29 kts | 60° |
| 2026-04-25 06:59 | 43.39717 | 132.15628 | 61 ft | 31 kts | 61° |
| 2026-04-25 06:59 | 43.39819 | 132.15894 | 64 ft | 32 kts | 62° |
| 2026-04-25 06:59 | 43.39890 | 132.16063 | 63 ft | 13 kts | 74° |
| 2026-04-25 07:00 | 43.39837 | 132.16153 | 66 ft | 14 kts | 150° |
| 2026-04-25 07:00 | 43.39747 | 132.16221 | 62 ft | 16 kts | 152° |
| 2026-04-25 07:00 | 43.39719 | 132.16327 | 62 ft | 14 kts | 63° |
| 2026-04-25 07:00 | 43.39713 | 132.16402 | 63 ft | 9 kts | 150° |
| 2026-04-25 07:01 | 43.39689 | 132.16419 | 66 ft | 0 kts | 152° |